Time;durP1;ratioP1;P1;durP2;ratioP2;P2;SDS_P1;SDS_P2;PMS_P1;PMS_P2;Temp;Humidity;BMP_temperature;BMP_pressure;BME280_temperature;BME280_humidity;BME280_pressure;Samples;Min_cycle;Max_cycle;Signal;HPM_P1;HPM_P2
2023/07/29 00:00:19;;;;;;;4.53;4.10;;;19.90;88.60;;;;;;5073284;28;20016;-69
2023/07/29 00:02:45;;;;;;;4.57;3.67;;;19.90;88.90;;;;;;5073187;28;20031;-69
2023/07/29 00:05:11;;;;;;;5.20;3.88;;;19.90;89.20;;;;;;5072722;28;20108;-69
2023/07/29 00:07:37;;;;;;;8.60;6.13;;;19.90;89.10;;;;;;5073015;28;20095;-69
2023/07/29 00:10:03;;;;;;;6.35;4.65;;;19.90;89.30;;;;;;5088372;28;20031;-69
2023/07/29 00:12:29;;;;;;;5.28;4.35;;;19.80;89.10;;;;;;5072962;28;20025;-70
2023/07/29 00:14:55;;;;;;;6.28;4.40;;;19.80;89.20;;;;;;5088825;28;20026;-69
2023/07/29 00:17:21;;;;;;;4.60;3.70;;;19.80;89.20;;;;;;5073257;28;20095;-69
2023/07/29 00:19:47;;;;;;;4.90;2.90;;;19.80;89.20;;;;;;5072850;28;20032;-69
2023/07/29 00:22:12;;;;;;;3.38;2.95;;;19.80;89.20;;;;;;5072777;28;20042;-69
2023/07/29 00:24:39;;;;;;;3.22;2.40;;;19.80;89.10;;;;;;5072435;28;20647;-69
2023/07/29 00:27:05;;;;;;;2.70;2.20;;;19.80;89.30;;;;;;5072896;28;20315;-69
2023/07/29 00:29:31;;;;;;;2.60;2.10;;;19.80;89.30;;;;;;5072426;28;20533;-69
2023/07/29 00:31:56;;;;;;;2.75;2.13;;;19.80;89.20;;;;;;5072699;28;20028;-69
2023/07/29 00:34:22;;;;;;;2.55;1.95;;;19.80;89.30;;;;;;5072648;28;20111;-69
2023/07/29 00:36:47;;;;;;;3.03;2.08;;;19.80;89.30;;;;;;5072133;28;20021;-69
2023/07/29 00:39:13;;;;;;;2.10;1.90;;;19.80;89.20;;;;;;5071594;28;20532;-69
2023/07/29 00:41:39;;;;;;;1.88;1.75;;;19.80;89.20;;;;;;5071972;28;20062;-69
2023/07/29 00:44:05;;;;;;;4.03;1.98;;;19.80;89.00;;;;;;5072340;28;20028;-69
2023/07/29 00:46:34;;;;;;;3.53;1.77;;;19.80;88.90;;;;;;5072249;28;20035;-69
2023/07/29 00:49:00;;;;;;;2.05;1.80;;;19.80;88.70;;;;;;5072255;28;20028;-69
2023/07/29 00:51:25;;;;;;;2.60;1.90;;;19.70;88.60;;;;;;5071832;28;20042;-69
2023/07/29 00:53:51;;;;;;;2.70;1.90;;;19.70;88.70;;;;;;5071971;28;20088;-69
2023/07/29 00:56:16;;;;;;;1.55;1.45;;;19.70;88.70;;;;;;5071829;28;20028;-69
2023/07/29 00:58:42;;;;;;;3.28;1.65;;;19.60;88.80;;;;;;5053938;28;20039;-69
2023/07/29 01:01:08;;;;;;;2.10;1.90;;;19.60;88.60;;;;;;5071829;28;20024;-69
2023/07/29 01:03:35;;;;;;;2.05;1.70;;;19.60;88.40;;;;;;5071783;28;20121;-69
2023/07/29 01:06:39;;;;;;;2.45;1.73;;;19.50;88.50;;;;;;5071518;28;20034;-69
2023/07/29 01:09:13;;;;;;;2.72;1.40;;;19.50;88.70;;;;;;5071776;28;20115;-69
2023/07/29 01:12:00;;;;;;;1.77;1.38;;;19.40;88.90;;;;;;5071597;28;20104;-69
2023/07/29 01:14:34;;;;;;;1.85;1.40;;;19.40;89.00;;;;;;5053404;28;20021;-69
2023/07/29 01:17:07;;;;;;;2.05;1.30;;;19.40;89.00;;;;;;5071497;28;20096;-69
2023/07/29 01:19:54;;;;;;;1.45;1.20;;;19.40;89.10;;;;;;5071741;28;20031;-69
2023/07/29 01:22:22;;;;;;;1.45;1.35;;;19.50;89.10;;;;;;5071394;28;20103;-69
2023/07/29 01:24:48;;;;;;;1.58;1.30;;;19.40;89.20;;;;;;5071340;28;20509;-69
2023/07/29 01:27:13;;;;;;;1.50;1.30;;;19.50;89.30;;;;;;5071658;28;20059;-69
2023/07/29 01:29:39;;;;;;;3.15;1.63;;;19.50;89.40;;;;;;5071280;28;20028;-69
2023/07/29 01:32:12;;;;;;;1.90;1.40;;;19.50;89.30;;;;;;5071345;28;20502;-69
2023/07/29 01:35:07;;;;;;;9.68;4.80;;;19.60;89.20;;;;;;5070821;28;20653;-69
2023/07/29 01:37:35;;;;;;;5.63;3.40;;;19.60;89.00;;;;;;4998990;28;20428;-68
2023/07/29 01:40:02;;;;;;;3.60;2.58;;;19.60;89.00;;;;;;5071066;28;20009;-69
2023/07/29 01:42:28;;;;;;;4.95;2.70;;;19.70;88.90;;;;;;5071050;28;20363;-69
2023/07/29 01:44:54;;;;;;;3.00;2.58;;;19.70;89.00;;;;;;5070878;28;20449;-69
2023/07/29 01:47:22;;;;;;;3.50;2.42;;;19.70;88.90;;;;;;5071307;28;20024;-69
2023/07/29 01:49:47;;;;;;;3.92;2.88;;;19.70;89.00;;;;;;5070289;28;20032;-69
2023/07/29 01:52:13;;;;;;;3.60;3.03;;;19.70;89.20;;;;;;5071156;28;20028;-69
2023/07/29 01:54:38;;;;;;;4.50;3.20;;;19.80;89.30;;;;;;5070779;28;20483;-68
2023/07/29 01:57:04;;;;;;;4.95;3.78;;;19.80;89.30;;;;;;5070770;28;20499;-69
2023/07/29 01:59:30;;;;;;;6.97;3.72;;;19.80;89.40;;;;;;5070716;28;20455;-69
2023/07/29 02:01:55;;;;;;;5.55;4.68;;;19.80;89.40;;;;;;5070859;28;20203;-69
2023/07/29 02:04:21;;;;;;;5.75;4.03;;;19.90;89.80;;;;;;5070478;28;20071;-69
2023/07/29 02:06:46;;;;;;;5.03;3.83;;;19.90;90.00;;;;;;5070489;28;20024;-69
2023/07/29 02:09:12;;;;;;;5.10;4.18;;;19.90;90.00;;;;;;5070556;28;20107;-69
2023/07/29 02:11:37;;;;;;;5.63;3.88;;;19.90;90.00;;;;;;5070551;28;20031;-69
2023/07/29 02:14:03;;;;;;;4.70;3.67;;;19.90;90.00;;;;;;5070409;28;20039;-69
2023/07/29 02:16:28;;;;;;;6.22;4.68;;;19.90;90.00;;;;;;5070214;28;20017;-69
2023/07/29 02:18:54;;;;;;;6.03;4.55;;;19.90;90.10;;;;;;5070293;28;20399;-69
2023/07/29 02:21:20;;;;;;;5.38;4.55;;;19.90;90.20;;;;;;5070383;28;20407;-69
2023/07/29 02:23:45;;;;;;;6.63;4.55;;;19.90;90.30;;;;;;5070685;28;20024;-69
2023/07/29 02:26:11;;;;;;;5.90;4.55;;;19.90;90.40;;;;;;5070396;28;20458;-69
2023/07/29 02:28:37;;;;;;;6.30;4.38;;;19.90;90.40;;;;;;5069445;28;20024;-69
2023/07/29 02:31:30;;;;;;;6.47;4.90;;;20.00;90.40;;;;;;5069246;28;20038;-68
2023/07/29 02:33:56;;;;;;;6.28;5.10;;;20.00;90.50;;;;;;5069569;28;20487;-69
2023/07/29 02:36:21;;;;;;;7.80;5.15;;;20.00;90.50;;;;;;5085672;28;20031;-69
2023/07/29 02:38:47;;;;;;;8.90;6.35;;;20.00;90.50;;;;;;5070420;28;20025;-69
2023/07/29 02:41:13;;;;;;;7.18;5.70;;;20.00;90.60;;;;;;5070249;28;20031;-68
2023/07/29 02:43:39;;;;;;;7.22;6.05;;;20.00;90.70;;;;;;5070457;28;20082;-69
2023/07/29 02:46:04;;;;;;;7.20;5.95;;;19.90;90.80;;;;;;5070541;28;20021;-68
2023/07/29 02:48:30;;;;;;;8.68;6.15;;;19.90;90.90;;;;;;5070628;28;20082;-68
2023/07/29 02:50:56;;;;;;;8.20;6.70;;;20.00;90.90;;;;;;5070738;28;20437;-69
2023/07/29 02:53:22;;;;;;;8.93;6.68;;;19.90;91.00;;;;;;5070595;28;20108;-69
2023/07/29 02:55:48;;;;;;;8.60;6.05;;;19.90;91.00;;;;;;5070285;28;20021;-68
2023/07/29 02:58:14;;;;;;;7.70;5.57;;;19.90;91.20;;;;;;5070550;28;20074;-69
2023/07/29 03:00:43;;;;;;;8.65;5.53;;;19.90;91.30;;;;;;5071406;28;20498;-68
2023/07/29 03:03:09;;;;;;;6.45;4.97;;;19.80;91.30;;;;;;5076905;28;20089;-68
2023/07/29 03:05:35;;;;;;;6.57;5.50;;;19.90;91.30;;;;;;5076573;28;20399;-69
2023/07/29 03:08:01;;;;;;;8.77;6.03;;;19.80;91.30;;;;;;5076746;28;20024;-69
2023/07/29 03:10:27;;;;;;;7.43;5.75;;;19.80;91.30;;;;;;5076640;28;20111;-69
2023/07/29 03:12:55;;;;;;;6.28;4.38;;;19.80;91.40;;;;;;5076536;28;20056;-69
2023/07/29 03:15:27;;;;;;;6.55;4.82;;;19.70;91.40;;;;;;5076493;28;20020;-69
2023/07/29 03:17:53;;;;;;;7.32;5.05;;;19.80;91.40;;;;;;5076425;28;20032;-69
2023/07/29 03:20:19;;;;;;;5.53;4.78;;;19.70;91.40;;;;;;5076396;28;20035;-69
2023/07/29 03:22:45;;;;;;;5.75;4.35;;;19.70;91.50;;;;;;5076681;28;20106;-69
2023/07/29 03:25:11;;;;;;;6.75;5.28;;;19.70;91.50;;;;;;5076205;28;20044;-69
2023/07/29 03:27:37;;;;;;;6.13;4.90;;;19.70;91.50;;;;;;5076323;28;20100;-69
2023/07/29 03:30:07;;;;;;;6.32;4.65;;;19.70;91.50;;;;;;5076120;28;20059;-69
2023/07/29 03:32:32;;;;;;;6.47;4.80;;;19.70;91.50;;;;;;5076661;28;20171;-69
2023/07/29 03:34:58;;;;;;;6.32;4.60;;;19.70;91.60;;;;;;5075996;28;20242;-69
2023/07/29 03:37:24;;;;;;;7.82;5.07;;;19.70;91.50;;;;;;5076377;28;20035;-69
2023/07/29 03:39:51;;;;;;;6.47;5.15;;;19.70;91.60;;;;;;5076235;28;20025;-69
2023/07/29 03:42:17;;;;;;;8.55;4.68;;;19.60;91.60;;;;;;5076385;28;20070;-68
2023/07/29 03:44:43;;;;;;;6.13;4.78;;;19.60;91.70;;;;;;5076085;28;20024;-69
2023/07/29 03:47:08;;;;;;;5.53;4.57;;;19.50;91.60;;;;;;5076435;28;20027;-69
2023/07/29 03:49:34;;;;;;;7.63;4.93;;;19.50;91.60;;;;;;5075993;28;20479;-68
2023/07/29 03:52:00;;;;;;;5.95;4.35;;;19.50;91.60;;;;;;5076328;28;20028;-69
2023/07/29 03:54:26;;;;;;;6.38;4.40;;;19.40;91.60;;;;;;5058046;28;20387;-69
2023/07/29 03:56:51;;;;;;;5.65;4.22;;;19.50;91.60;;;;;;5076101;28;20071;-69
2023/07/29 03:59:17;;;;;;;6.03;4.20;;;19.50;91.60;;;;;;5075946;28;20024;-69
2023/07/29 04:01:43;;;;;;;5.75;4.00;;;19.40;91.60;;;;;;5076096;28;20471;-69
2023/07/29 04:04:08;;;;;;;6.05;4.18;;;19.40;91.60;;;;;;5076077;28;20058;-69
2023/07/29 04:06:34;;;;;;;6.07;4.00;;;19.40;91.60;;;;;;5075738;28;20567;-69
2023/07/29 04:08:59;;;;;;;5.75;4.20;;;19.40;91.60;;;;;;5076472;28;20028;-69
2023/07/29 04:11:25;;;;;;;4.65;3.50;;;19.30;91.60;;;;;;5075796;28;20025;-69
2023/07/29 04:13:51;;;;;;;4.47;3.80;;;19.30;91.60;;;;;;5072984;28;20111;-69
2023/07/29 04:16:17;;;;;;;6.88;3.47;;;19.30;91.60;;;;;;5072555;28;20107;-69
2023/07/29 04:18:42;;;;;;;5.13;3.47;;;19.30;91.60;;;;;;5072585;28;20027;-69
2023/07/29 04:21:08;;;;;;;5.90;3.85;;;19.30;91.50;;;;;;5072975;28;20078;-69
2023/07/29 04:23:35;;;;;;;5.30;3.53;;;19.30;91.50;;;;;;5072675;28;20629;-68
2023/07/29 04:26:00;;;;;;;4.70;3.10;;;19.20;91.50;;;;;;5072344;28;20028;-68
2023/07/29 04:28:26;;;;;;;4.72;3.33;;;19.20;91.50;;;;;;5072659;28;20032;-69
2023/07/29 04:30:51;;;;;;;4.70;3.30;;;19.20;91.50;;;;;;5072395;28;20036;-68
2023/07/29 04:33:17;;;;;;;3.35;2.83;;;19.20;91.40;;;;;;5054180;28;20025;-69
2023/07/29 04:35:42;;;;;;;4.60;3.08;;;19.20;91.40;;;;;;5072411;28;20089;-69
2023/07/29 04:38:08;;;;;;;4.95;2.95;;;19.20;91.60;;;;;;5072256;28;20468;-69
2023/07/29 04:40:34;;;;;;;2.60;2.40;;;19.20;91.30;;;;;;5072293;28;20032;-69
2023/07/29 04:43:02;;;;;;;3.72;2.65;;;19.20;91.20;;;;;;5072116;28;20032;-69
2023/07/29 04:45:31;;;;;;;3.45;2.60;;;19.20;91.10;;;;;;5072307;28;20292;-69
2023/07/29 04:47:58;;;;;;;5.00;3.00;;;19.20;91.10;;;;;;5072042;28;20457;-69
2023/07/29 04:50:23;;;;;;;3.38;2.60;;;19.20;91.10;;;;;;5072208;28;20364;-69
2023/07/29 04:52:49;;;;;;;5.47;2.65;;;19.20;91.00;;;;;;5071923;28;20034;-69
2023/07/29 04:55:15;;;;;;;3.65;2.60;;;19.20;91.00;;;;;;5071922;28;20063;-68
2023/07/29 04:57:40;;;;;;;2.65;2.30;;;19.20;91.00;;;;;;5072026;28;20059;-69
2023/07/29 05:00:06;;;;;;;3.15;2.30;;;19.20;90.90;;;;;;5072170;28;20046;-69
2023/07/29 05:02:32;;;;;;;3.05;2.10;;;19.10;90.90;;;;;;5071940;28;20024;-69
2023/07/29 05:04:57;;;;;;;4.10;2.70;;;19.10;91.00;;;;;;5071703;28;20028;-69
2023/07/29 05:07:23;;;;;;;4.40;2.50;;;19.10;90.90;;;;;;5071769;28;20081;-69
2023/07/29 05:09:49;;;;;;;4.22;2.70;;;19.00;90.90;;;;;;5071583;28;20475;-68
2023/07/29 05:12:14;;;;;;;3.92;2.95;;;19.00;90.90;;;;;;5071745;28;20029;-69
2023/07/29 05:14:40;;;;;;;3.42;2.70;;;19.00;90.90;;;;;;5071563;28;20021;-69
2023/07/29 05:17:06;;;;;;;3.38;2.20;;;18.90;90.80;;;;;;5071645;28;20487;-68
2023/07/29 05:19:31;;;;;;;3.70;2.90;;;18.90;90.80;;;;;;5071498;28;20043;-69
2023/07/29 05:21:57;;;;;;;3.35;2.30;;;19.00;90.70;;;;;;5071945;28;20024;-69
2023/07/29 05:24:23;;;;;;;3.83;2.50;;;19.00;90.70;;;;;;5071174;28;20031;-68
2023/07/29 05:26:49;;;;;;;4.55;2.50;;;19.00;90.50;;;;;;5071624;28;20074;-69
2023/07/29 05:29:14;;;;;;;2.90;2.30;;;19.10;90.50;;;;;;5071530;28;20033;-69
2023/07/29 05:31:40;;;;;;;2.88;2.38;;;19.10;90.30;;;;;;5072067;28;20025;-69
2023/07/29 05:34:06;;;;;;;4.07;2.33;;;19.10;90.40;;;;;;5071801;28;20506;-69
2023/07/29 05:36:31;;;;;;;3.05;2.20;;;19.10;90.40;;;;;;5071841;28;20096;-69
2023/07/29 05:38:57;;;;;;;2.88;2.20;;;19.20;90.00;;;;;;5071704;28;20383;-69
2023/07/29 05:41:23;;;;;;;3.17;2.30;;;19.10;89.90;;;;;;5071186;28;20078;-69
2023/07/29 05:43:48;;;;;;;3.67;2.30;;;19.10;89.80;;;;;;5071197;28;20021;-69
2023/07/29 05:46:14;;;;;;;2.67;2.30;;;19.10;89.80;;;;;;5070758;28;20028;-69
2023/07/29 05:48:39;;;;;;;3.53;2.03;;;19.10;89.70;;;;;;5071063;28;20017;-69
2023/07/29 05:51:05;;;;;;;3.05;2.50;;;19.10;89.70;;;;;;5070949;28;20083;-69
2023/07/29 05:53:31;;;;;;;3.38;2.28;;;19.10;89.60;;;;;;5052891;28;20039;-68
2023/07/29 05:55:56;;;;;;;3.88;2.75;;;19.20;89.60;;;;;;5070657;28;20017;-68
2023/07/29 05:58:22;;;;;;;3.38;2.60;;;19.20;89.50;;;;;;5070661;28;20441;-69
2023/07/29 06:00:48;;;;;;;4.70;3.22;;;19.20;89.20;;;;;;5070630;28;20060;-69
2023/07/29 06:03:13;;;;;;;3.58;2.60;;;19.10;89.20;;;;;;5070751;28;20479;-68
2023/07/29 06:05:39;;;;;;;2.70;2.20;;;19.10;89.00;;;;;;5070522;28;20047;-68
2023/07/29 06:08:05;;;;;;;4.22;2.72;;;19.30;89.00;;;;;;5070473;28;20025;-69
2023/07/29 06:10:31;;;;;;;2.90;2.58;;;19.40;88.60;;;;;;5070733;28;20032;-69
2023/07/29 06:12:56;;;;;;;4.68;3.10;;;19.70;87.30;;;;;;5070337;28;20436;-69
2023/07/29 06:15:22;;;;;;;3.72;2.80;;;19.70;86.70;;;;;;5070386;28;20118;-69
2023/07/29 06:17:48;;;;;;;3.90;2.55;;;19.60;86.70;;;;;;5070280;28;20021;-69
2023/07/29 06:20:14;;;;;;;4.88;3.15;;;19.60;86.90;;;;;;5070380;28;20052;-68
2023/07/29 06:22:41;;;;;;;4.55;2.88;;;20.00;86.80;;;;;;5070507;28;20098;-69
2023/07/29 06:25:06;;;;;;;4.38;3.00;;;21.00;84.40;;;;;;5070451;28;20025;-69
2023/07/29 06:27:32;;;;;;;4.20;3.17;;;22.10;80.10;;;;;;5070315;28;20039;-69
2023/07/29 06:29:57;;;;;;;3.88;2.70;;;22.00;78.00;;;;;;5070189;28;20060;-69
2023/07/29 06:32:23;;;;;;;4.07;3.10;;;22.20;77.70;;;;;;5070071;28;20032;-69
2023/07/29 06:34:48;;;;;;;4.40;2.80;;;22.30;77.10;;;;;;5070075;28;20036;-69
2023/07/29 06:37:14;;;;;;;3.85;2.80;;;22.80;76.10;;;;;;5069289;28;20097;-69
2023/07/29 06:39:40;;;;;;;5.15;3.20;;;23.50;74.50;;;;;;5070103;28;20028;-69
2023/07/29 06:42:06;;;;;;;5.13;3.00;;;23.90;72.50;;;;;;5070480;28;20099;-69
2023/07/29 06:44:31;;;;;;;5.95;3.28;;;24.00;71.80;;;;;;5069928;28;20028;-69
2023/07/29 06:46:58;;;;;;;5.47;2.92;;;23.50;71.40;;;;;;5070042;28;20031;-69
2023/07/29 06:49:23;;;;;;;4.22;3.17;;;23.00;72.70;;;;;;5069962;28;20530;-69
2023/07/29 06:51:49;;;;;;;5.75;2.95;;;22.60;73.70;;;;;;5070015;28;20024;-69
2023/07/29 06:54:16;;;;;;;4.57;3.10;;;22.50;75.30;;;;;;5069540;28;20116;-69
2023/07/29 06:56:42;;;;;;;7.07;3.42;;;22.60;75.40;;;;;;5069924;28;20024;-69
2023/07/29 06:59:07;;;;;;;3.60;2.75;;;22.40;75.40;;;;;;5069828;28;20387;-69
2023/07/29 07:01:34;;;;;;;6.05;3.28;;;22.50;75.80;;;;;;5069945;28;20032;-69
2023/07/29 07:03:59;;;;;;;5.28;3.40;;;22.30;75.70;;;;;;5069917;28;20033;-69
2023/07/29 07:06:25;;;;;;;3.50;2.50;;;22.20;76.00;;;;;;5085137;28;20032;-69
2023/07/29 07:08:51;;;;;;;5.25;2.97;;;22.40;76.30;;;;;;5069811;28;20286;-69
2023/07/29 07:11:18;;;;;;;4.10;2.95;;;22.50;75.80;;;;;;5069974;28;20103;-69
2023/07/29 07:13:43;;;;;;;5.13;3.20;;;22.70;75.80;;;;;;5069709;28;20443;-69
2023/07/29 07:16:09;;;;;;;4.90;3.65;;;22.90;75.20;;;;;;5069591;28;20102;-69
2023/07/29 07:18:34;;;;;;;4.82;3.42;;;23.00;74.70;;;;;;5069712;28;20044;-69
2023/07/29 07:21:00;;;;;;;4.03;2.92;;;22.90;74.40;;;;;;5069525;28;20199;-69
2023/07/29 07:23:25;;;;;;;3.88;2.90;;;22.70;74.70;;;;;;5069634;28;20031;-69
2023/07/29 07:25:51;;;;;;;4.95;2.88;;;22.50;75.20;;;;;;5069474;28;20078;-69
2023/07/29 07:28:16;;;;;;;4.68;3.45;;;22.40;75.60;;;;;;5051606;28;20029;-69
2023/07/29 07:30:42;;;;;;;5.30;3.83;;;22.30;75.70;;;;;;5069425;28;20040;-69
2023/07/29 07:33:08;;;;;;;4.28;2.95;;;22.10;75.80;;;;;;5069442;28;20040;-69
2023/07/29 07:35:33;;;;;;;4.15;3.35;;;22.00;76.30;;;;;;5069394;28;20091;-69
2023/07/29 07:38:01;;;;;;;4.35;3.50;;;21.80;77.00;;;;;;5049934;28;20068;-69
2023/07/29 07:40:27;;;;;;;5.40;3.60;;;21.80;77.40;;;;;;5029690;28;20025;-69
2023/07/29 07:42:53;;;;;;;3.70;3.22;;;21.70;77.60;;;;;;5029547;28;20024;-68
2023/07/29 07:45:19;;;;;;;4.95;3.20;;;22.00;77.50;;;;;;5011878;28;20057;-68
2023/07/29 07:47:45;;;;;;;3.75;3.05;;;22.10;77.10;;;;;;5031156;28;20511;-69
2023/07/29 07:50:10;;;;;;;4.75;2.95;;;22.20;76.80;;;;;;5015661;28;20053;-69
2023/07/29 07:52:36;;;;;;;4.82;3.30;;;22.10;76.90;;;;;;5032745;28;20274;-69
2023/07/29 07:55:02;;;;;;;5.50;3.88;;;22.10;77.10;;;;;;5051841;28;20039;-69
2023/07/29 07:57:27;;;;;;;4.68;3.50;;;21.90;77.10;;;;;;5072952;28;20021;-69
2023/07/29 07:59:53;;;;;;;4.35;3.80;;;21.80;77.50;;;;;;5072869;28;20020;-69
2023/07/29 08:02:20;;;;;;;4.70;3.38;;;21.80;77.90;;;;;;5073143;28;20502;-69
2023/07/29 08:04:45;;;;;;;4.35;3.30;;;21.70;78.10;;;;;;5072908;28;20420;-69
2023/07/29 08:07:11;;;;;;;4.32;2.90;;;21.70;78.20;;;;;;5073168;28;20032;-69
2023/07/29 08:09:37;;;;;;;3.92;3.13;;;21.80;78.40;;;;;;5073424;28;20016;-69
2023/07/29 08:12:02;;;;;;;5.05;3.08;;;21.70;78.30;;;;;;5073309;28;20052;-69
2023/07/29 08:14:28;;;;;;;3.95;3.03;;;21.70;78.40;;;;;;5072678;28;20383;-69
2023/07/29 08:16:53;;;;;;;3.95;3.30;;;21.60;78.70;;;;;;5072773;28;20031;-69
2023/07/29 08:19:19;;;;;;;3.58;2.90;;;21.50;79.00;;;;;;5088130;28;20023;-69
2023/07/29 08:21:45;;;;;;;5.45;3.47;;;21.50;79.20;;;;;;5072890;28;20534;-68
2023/07/29 08:24:10;;;;;;;4.10;3.00;;;21.50;79.40;;;;;;5072620;28;20029;-69
2023/07/29 08:26:36;;;;;;;3.70;3.28;;;21.50;79.60;;;;;;5072646;28;20032;-69
2023/07/29 08:29:02;;;;;;;4.00;3.20;;;21.50;80.10;;;;;;5072271;28;20024;-69
2023/07/29 08:31:28;;;;;;;3.97;2.85;;;21.50;79.40;;;;;;5054846;28;20035;-69
2023/07/29 08:33:53;;;;;;;4.93;3.10;;;21.60;79.30;;;;;;5072359;28;20387;-69
2023/07/29 08:36:19;;;;;;;3.70;2.90;;;21.60;79.30;;;;;;5072334;28;20024;-69
2023/07/29 08:38:44;;;;;;;3.75;2.70;;;21.60;79.20;;;;;;5054258;28;20356;-69
2023/07/29 08:41:10;;;;;;;3.55;3.00;;;21.60;79.30;;;;;;5072252;28;20063;-69
2023/07/29 08:43:38;;;;;;;3.05;2.70;;;21.60;79.40;;;;;;5054058;28;20036;-69
2023/07/29 08:46:04;;;;;;;2.83;2.42;;;21.50;79.40;;;;;;5072095;28;20060;-69
2023/07/29 08:48:41;;;;;;;4.70;3.00;;;21.50;80.20;;;;;;5072153;28;20056;-69
2023/07/29 08:51:09;;;;;;;2.58;2.38;;;21.50;79.60;;;;;;5072311;28;20024;-69
2023/07/29 08:53:35;;;;;;;3.40;2.35;;;21.50;79.80;;;;;;5071922;28;20028;-69
2023/07/29 08:56:01;;;;;;;4.22;3.15;;;21.50;79.70;;;;;;5071740;28;20081;-69
2023/07/29 08:58:27;;;;;;;2.63;2.28;;;21.70;79.70;;;;;;5071367;28;20483;-69
2023/07/29 09:00:53;;;;;;;2.67;2.38;;;21.80;79.60;;;;;;5071560;28;20024;-69
2023/07/29 09:03:19;;;;;;;3.42;2.30;;;22.00;79.00;;;;;;5071854;28;20024;-69
2023/07/29 09:05:46;;;;;;;6.35;3.08;;;22.20;78.50;;;;;;5071757;28;20035;-69
2023/07/29 09:08:12;;;;;;;2.25;1.98;;;22.20;77.40;;;;;;5071844;28;20025;-69
2023/07/29 09:10:37;;;;;;;3.50;2.10;;;22.10;77.40;;;;;;5071820;28;20399;-69
2023/07/29 09:13:04;;;;;;;2.83;2.08;;;22.00;77.30;;;;;;5071660;28;20131;-69
2023/07/29 09:15:32;;;;;;;3.55;2.20;;;22.00;77.20;;;;;;5071497;28;20023;-69
2023/07/29 09:17:58;;;;;;;2.25;1.90;;;22.10;77.30;;;;;;5071545;28;20032;-69
2023/07/29 09:20:27;;;;;;;1.98;1.77;;;22.10;77.10;;;;;;5071357;28;20044;-69
2023/07/29 09:23:01;;;;;;;1.98;1.77;;;22.10;77.20;;;;;;5071451;28;20048;-69
2023/07/29 09:25:29;;;;;;;2.40;1.75;;;22.10;77.20;;;;;;5071467;28;20421;-69
2023/07/29 09:28:01;;;;;;;2.22;1.88;;;22.10;77.20;;;;;;5071398;28;20024;-69
2023/07/29 09:30:27;;;;;;;2.47;2.15;;;22.10;77.40;;;;;;5070988;28;20115;-69
2023/07/29 09:32:57;;;;;;;3.80;2.03;;;22.10;77.00;;;;;;5053287;28;20020;-69
2023/07/29 09:35:23;;;;;;;3.30;1.95;;;22.10;77.00;;;;;;5071041;28;20020;-69
2023/07/29 09:37:51;;;;;;;2.17;1.95;;;22.20;76.80;;;;;;5071031;28;20430;-69
2023/07/29 09:40:17;;;;;;;2.38;1.70;;;22.30;76.00;;;;;;5071048;28;20012;-69
2023/07/29 09:42:51;;;;;;;1.90;1.70;;;22.50;76.10;;;;;;5070775;28;20017;-69
2023/07/29 09:45:24;;;;;;;2.25;1.63;;;22.60;75.30;;;;;;5071368;28;20023;-69
2023/07/29 09:47:51;;;;;;;3.55;2.00;;;22.70;74.80;;;;;;5070932;28;20021;-69
2023/07/29 09:50:17;;;;;;;3.00;2.00;;;22.80;74.20;;;;;;5070928;28;20020;-69
2023/07/29 09:52:44;;;;;;;2.70;2.13;;;22.90;73.60;;;;;;5070820;28;20099;-69
2023/07/29 09:55:12;;;;;;;2.80;1.70;;;22.80;72.80;;;;;;5070620;28;20025;-69
2023/07/29 09:57:38;;;;;;;1.70;1.50;;;22.80;73.00;;;;;;5070730;28;20017;-69
2023/07/29 10:00:10;;;;;;;1.45;1.30;;;23.00;73.10;;;;;;5052679;28;20013;-69
2023/07/29 10:02:40;;;;;;;3.92;1.52;;;23.20;72.50;;;;;;5070507;28;20024;-69
2023/07/29 10:05:07;;;;;;;2.38;1.20;;;23.30;71.60;;;;;;5070575;28;20031;-69
2023/07/29 10:07:34;;;;;;;2.85;1.50;;;23.40;71.30;;;;;;5070399;28;20021;-69
2023/07/29 10:10:02;;;;;;;1.40;1.25;;;23.60;71.10;;;;;;5070359;28;20101;-69
2023/07/29 10:12:30;;;;;;;2.25;1.60;;;23.70;70.80;;;;;;5070472;28;20025;-69
2023/07/29 10:15:04;;;;;;;2.00;1.70;;;23.80;70.50;;;;;;5070327;28;20025;-69
2023/07/29 10:17:33;;;;;;;2.15;1.55;;;23.80;70.30;;;;;;5070940;28;20028;-69
2023/07/29 10:19:59;;;;;;;2.92;1.35;;;23.90;69.90;;;;;;5070476;28;20016;-69
2023/07/29 10:22:38;;;;;;;1.90;1.60;;;24.20;70.40;;;;;;5070329;28;20490;-69
2023/07/29 10:25:08;;;;;;;2.67;1.50;;;24.20;68.90;;;;;;5070118;28;20017;-69
2023/07/29 10:27:52;;;;;;;2.53;1.37;;;24.40;68.40;;;;;;5070595;28;20074;-69
2023/07/29 10:30:17;;;;;;;1.88;1.42;;;24.60;68.20;;;;;;5050302;28;20060;-69
2023/07/29 10:32:45;;;;;;;2.30;1.20;;;24.60;67.70;;;;;;5064431;28;20392;-70
2023/07/29 10:35:14;;;;;;;2.58;1.33;;;24.70;67.90;;;;;;5069666;28;20025;-70
2023/07/29 10:37:41;;;;;;;1.83;1.40;;;24.70;67.60;;;;;;5070371;28;20025;-69
2023/07/29 10:40:09;;;;;;;2.15;1.38;;;24.90;67.50;;;;;;5070456;28;20149;-69
2023/07/29 10:42:35;;;;;;;2.08;1.30;;;25.00;66.80;;;;;;5070855;28;20028;-70
2023/07/29 10:45:16;;;;;;;1.63;1.38;;;25.10;66.30;;;;;;5070628;28;20028;-69
2023/07/29 10:47:42;;;;;;;2.55;1.30;;;25.10;66.00;;;;;;5070317;28;20107;-69
2023/07/29 10:50:18;;;;;;;1.60;1.10;;;25.10;65.90;;;;;;5070075;28;20063;-70
2023/07/29 10:52:43;;;;;;;2.08;1.33;;;25.00;65.80;;;;;;5070161;28;20024;-69
2023/07/29 10:55:27;;;;;;;2.03;1.67;;;24.90;66.20;;;;;;5076794;28;20443;-69
2023/07/29 10:58:03;;;;;;;3.45;2.08;;;24.80;66.20;;;;;;5048065;28;20017;-70
2023/07/29 11:00:30;;;;;;;3.53;2.25;;;24.70;66.30;;;;;;5041938;28;20024;-70
2023/07/29 11:03:05;;;;;;;1.65;1.50;;;24.70;66.30;;;;;;5049610;28;20472;-69
2023/07/29 11:05:47;;;;;;;3.47;1.67;;;24.60;66.90;;;;;;5031956;28;20024;-70
2023/07/29 11:08:31;;;;;;;2.92;1.70;;;24.70;67.10;;;;;;5050221;28;20021;-69
2023/07/29 11:11:03;;;;;;;2.25;1.73;;;24.70;66.80;;;;;;5049633;28;20100;-70
2023/07/29 11:13:32;;;;;;;;;;;24.70;66.90;;;;;;5050327;28;20021;-69
2023/07/29 11:15:59;;;;;;;2.63;1.60;;;24.70;66.80;;;;;;5049632;28;20390;-70
2023/07/29 11:18:35;;;;;;;2.95;1.60;;;24.60;66.90;;;;;;5049822;28;20490;-70
2023/07/29 11:21:03;;;;;;;1.80;1.55;;;24.60;67.20;;;;;;5049664;28;20025;-70
2023/07/29 11:23:37;;;;;;;2.85;1.80;;;24.60;67.00;;;;;;5052721;28;20052;-70
2023/07/29 11:26:04;;;;;;;2.28;1.58;;;24.30;66.60;;;;;;5053593;28;20376;-70
2023/07/29 11:28:30;;;;;;;1.90;1.70;;;24.20;67.40;;;;;;5053687;28;20021;-69
2023/07/29 11:30:57;;;;;;;1.77;1.50;;;24.20;67.70;;;;;;5053467;28;20090;-69
2023/07/29 11:33:25;;;;;;;2.00;1.50;;;24.10;68.10;;;;;;5053199;28;20052;-69
2023/07/29 11:35:51;;;;;;;3.33;1.70;;;24.00;68.80;;;;;;5053653;28;20516;-69
2023/07/29 11:38:19;;;;;;;3.30;1.60;;;23.90;69.30;;;;;;5053293;28;20503;-69
2023/07/29 11:40:59;;;;;;;2.28;1.80;;;23.70;69.90;;;;;;5053511;28;20226;-69
2023/07/29 11:43:26;;;;;;;2.25;1.30;;;23.50;70.40;;;;;;5053221;28;20411;-69
2023/07/29 11:45:52;;;;;;;1.60;1.50;;;23.40;70.90;;;;;;5053275;28;20215;-69
2023/07/29 11:48:18;;;;;;;1.65;1.30;;;23.30;71.40;;;;;;5053349;28;20387;-69
2023/07/29 11:50:45;;;;;;;2.17;1.45;;;23.30;72.40;;;;;;5053245;28;20383;-69
2023/07/29 11:53:11;;;;;;;2.78;1.60;;;23.20;71.90;;;;;;5053003;28;20427;-70
2023/07/29 11:55:37;;;;;;;1.52;1.42;;;23.20;72.20;;;;;;5053217;28;20336;-70
2023/07/29 11:58:03;;;;;;;1.60;1.40;;;23.00;73.00;;;;;;5035093;28;20017;-69
2023/07/29 12:00:28;;;;;;;2.15;1.40;;;22.80;72.80;;;;;;5052987;28;20843;-70
2023/07/29 12:02:54;;;;;;;2.40;1.35;;;22.70;73.60;;;;;;5052839;28;20112;-70
2023/07/29 12:05:22;;;;;;;2.33;1.60;;;22.50;74.30;;;;;;5052940;28;20491;-70
2023/07/29 12:07:48;;;;;;;1.20;1.05;;;22.30;75.20;;;;;;5052952;28;20087;-70
2023/07/29 12:10:14;;;;;;;2.05;1.10;;;22.10;75.80;;;;;;5052764;28;20491;-70
2023/07/29 12:12:47;;;;;;;1.48;1.15;;;21.90;76.50;;;;;;5052926;28;20063;-69
2023/07/29 12:15:12;;;;;;;1.17;1.08;;;21.80;77.20;;;;;;5052658;28;20028;-69
2023/07/29 12:17:41;;;;;;;1.77;1.25;;;21.60;77.90;;;;;;5034885;28;20029;-69
2023/07/29 12:20:10;;;;;;;1.92;1.20;;;21.40;78.80;;;;;;5052661;28;20436;-69
2023/07/29 12:22:35;;;;;;;1.75;1.35;;;21.20;79.60;;;;;;5052826;28;20100;-69
2023/07/29 12:25:02;;;;;;;2.72;1.13;;;21.30;80.30;;;;;;5052426;28;20100;-69
2023/07/29 12:27:30;;;;;;;1.23;1.13;;;21.20;80.80;;;;;;5052507;28;20013;-70
2023/07/29 12:29:56;;;;;;;1.55;1.20;;;21.30;81.20;;;;;;5052351;28;20082;-69
2023/07/29 12:32:25;;;;;;;1.30;1.20;;;21.40;81.10;;;;;;5052794;28;20029;-69
2023/07/29 12:34:53;;;;;;;1.45;1.00;;;21.50;81.70;;;;;;5051038;28;20056;-69
2023/07/29 12:37:19;;;;;;;1.38;1.20;;;21.60;81.50;;;;;;5052462;28;20021;-69
2023/07/29 12:39:45;;;;;;;2.33;1.65;;;21.60;81.50;;;;;;5052126;28;20051;-69
2023/07/29 12:42:10;;;;;;;1.52;1.27;;;21.60;82.40;;;;;;5052263;28;20202;-69
2023/07/29 12:44:37;;;;;;;1.67;1.30;;;21.70;81.80;;;;;;5052330;28;20036;-69
2023/07/29 12:47:05;;;;;;;1.33;1.23;;;21.70;81.90;;;;;;5052123;28;20106;-69